Terminal Aerodrome Forecast
Issued by NWS

Home | Current Version | Previous Version | Text Only | Print | Product List | Glossary On
Versions: 1 2 3 4 5 6 7 8 9 10 11 12
000
FTUS43 KABR 300524
TAFMBG
TAF
KMBG 300524Z 3006/0106 14013KT P6SM SCT250
     FM301500 15016G24KT P6SM SCT250
     FM010100 13013KT P6SM BKN250=

USA.gov is the U.S. government's official web portal to all federal, state and local government web resources and services.